Rhyl, United Kingdom

9:26 PM BST on August 27, 2014 (GMT +0100)
Rhuddlan | Change Station
CLOSE
Current Station
Personal Weather Station
Location: Rhyl, DENBIGHSHIRE
Elevation: 58 ft
Nearby Weather Stations

Elev 58 ft 53.29 °N, 3.49 °W | Updated 10 minutes ago

Mostly Cloudy
Mostly Cloudy
63.0 °F
Feels Like 63.0 °F
N
0.0
Wind Variable Wind from South
Gusts 0.0 mph

Today
High -- | Low -- °F
--% Chance of Precip.
Yesterday
High -- | Low -- °F
Precip. -- in
6:14 AM 8:15 PM
Waxing Crescent, 5% visible
Pressure 29.77 in
Visibility 6.2 miles
Clouds Mostly Cloudy 2700 ft
Dew Point 56 °F
Humidity 78%
Rainfall 0.00 in
Snow Depth Not available.
UV 0.0 out of 12
Pollen Not available.
Air Quality Not available.
Flu Activity Not available.
METAR EGGP 272020Z 12013KT 9999 VCSH BKN027 17/12 Q1008

More Conditions Fewer Conditions

Pressure 29.77 in
Visibility 6.2 miles
Clouds Mostly Cloudy 2700 ft
Dew Point 56 °F
Humidity 78%
Rainfall 0.00 in
Snow Depth Not available.
UV 0.0 out of 12
Pollen Not available.
Air Quality Not available.
Flu Activity Not available.
METAR EGGP 272020Z 12013KT 9999 VCSH BKN027 17/12 Q1008

More Conditions Fewer Conditions

10-Day Weather Forecast

Almanac

Astronomy

Aug. 27, 2014 Rise Set
Actual Time 6:14 AM BST 8:15 PM BST
Civil Twilight 5:37 AM BST 8:52 PM BST
Nautical Twilight 4:50 AM BST 9:38 PM BST
Astronomical Twilight 3:56 AM BST 10:32 PM BST
Moon 8:18 AM BST 8:35 PM BST
Length of Visible Light 15h 15m
Length of Day
14h 00m
Tomorrow will be 4m 1s shorter.
Waxing Crescent, 5% of the Moon is Illuminated
Today
Waxing Crescent
Sep 2
First Quarter
Sep 8
Full
Sep 15
Last Quarter
Sep 24
New

Today's Extremes

Country Highs Country Lows

Community

WunderPhotos

Upload Photos

1,747,781 photos uploaded!

Nearby

Snow Depth

Not available.

Earthquake Activity

City Distance Mag. Time & Date
No recent earthquake activity has been reported nearby.
Minimum magnitude displayed is 2.5.

Coastal Water Temperatures

Place Temperature
No Stations Reporting

Nearby Weather Stations